sensor_id;sensor_type;location;lat;lon;timestamp;pressure;altitude;pressure_sealevel;temperature;humidity
55755;BME280;41674;52.290;-1.474;2024-02-26T00:00:57;99521.87;;;1.74;100.00
55755;BME280;41674;52.290;-1.474;2024-02-26T00:03:27;99529.13;;;2.02;100.00
55755;BME280;41674;52.290;-1.474;2024-02-26T00:05:56;99535.10;;;2.39;100.00
55755;BME280;41674;52.290;-1.474;2024-02-26T00:08:26;99535.16;;;2.65;100.00
55755;BME280;41674;52.290;-1.474;2024-02-26T00:10:55;99538.70;;;2.18;100.00
55755;BME280;41674;52.290;-1.474;2024-02-26T00:13:25;99547.51;;;1.80;100.00
55755;BME280;41674;52.290;-1.474;2024-02-26T00:15:55;99552.25;;;1.46;100.00
55755;BME280;41674;52.290;-1.474;2024-02-26T00:18:24;99559.15;;;1.65;100.00
55755;BME280;41674;52.290;-1.474;2024-02-26T00:20:54;99558.05;;;1.38;100.00
55755;BME280;41674;52.290;-1.474;2024-02-26T00:23:24;99558.14;;;1.16;100.00
55755;BME280;41674;52.290;-1.474;2024-02-26T00:25:55;99565.41;;;0.93;100.00
55755;BME280;41674;52.290;-1.474;2024-02-26T00:28:26;99572.38;;;1.72;100.00
55755;BME280;41674;52.290;-1.474;2024-02-26T00:30:53;99570.05;;;1.86;100.00
55755;BME280;41674;52.290;-1.474;2024-02-26T00:33:23;99578.35;;;1.50;100.00
55755;BME280;41674;52.290;-1.474;2024-02-26T00:35:52;99584.84;;;1.67;100.00
55755;BME280;41674;52.290;-1.474;2024-02-26T00:38:24;99590.96;;;1.59;100.00
55755;BME280;41674;52.290;-1.474;2024-02-26T00:40:52;99590.20;;;2.38;100.00
55755;BME280;41674;52.290;-1.474;2024-02-26T00:43:21;99595.07;;;1.38;100.00
55755;BME280;41674;52.290;-1.474;2024-02-26T00:45:51;99598.13;;;1.57;100.00
55755;BME280;41674;52.290;-1.474;2024-02-26T00:48:21;99601.65;;;1.83;100.00
55755;BME280;41674;52.290;-1.474;2024-02-26T00:50:50;99606.80;;;1.94;100.00
55755;BME280;41674;52.290;-1.474;2024-02-26T00:53:19;99611.43;;;1.52;100.00
55755;BME280;41674;52.290;-1.474;2024-02-26T00:55:49;99619.67;;;1.74;100.00
55755;BME280;41674;52.290;-1.474;2024-02-26T00:58:18;99619.71;;;2.01;100.00
55755;BME280;41674;52.290;-1.474;2024-02-26T01:00:48;99627.76;;;1.69;100.00
55755;BME280;41674;52.290;-1.474;2024-02-26T01:03:18;99630.03;;;1.67;100.00
55755;BME280;41674;52.290;-1.474;2024-02-26T01:05:48;99639.92;;;1.27;100.00
55755;BME280;41674;52.290;-1.474;2024-02-26T01:08:17;99647.42;;;1.76;100.00
55755;BME280;41674;52.290;-1.474;2024-02-26T01:10:47;99648.06;;;1.49;100.00
55755;BME280;41674;52.290;-1.474;2024-02-26T01:13:16;99655.11;;;1.20;100.00
55755;BME280;41674;52.290;-1.474;2024-02-26T01:15:48;99664.38;;;1.12;100.00
55755;BME280;41674;52.290;-1.474;2024-02-26T01:18:17;99659.87;;;1.61;100.00
55755;BME280;41674;52.290;-1.474;2024-02-26T01:20:46;99670.48;;;1.16;100.00
55755;BME280;41674;52.290;-1.474;2024-02-26T01:23:17;99677.80;;;1.04;100.00
55755;BME280;41674;52.290;-1.474;2024-02-26T01:25:45;99676.44;;;1.22;100.00
55755;BME280;41674;52.290;-1.474;2024-02-26T01:28:15;99680.49;;;1.22;100.00
55755;BME280;41674;52.290;-1.474;2024-02-26T01:30:44;99692.48;;;2.03;100.00
55755;BME280;41674;52.290;-1.474;2024-02-26T01:33:16;99696.09;;;1.32;100.00
55755;BME280;41674;52.290;-1.474;2024-02-26T01:35:44;99699.82;;;1.53;100.00
55755;BME280;41674;52.290;-1.474;2024-02-26T01:38:13;99705.34;;;2.29;100.00
55755;BME280;41674;52.290;-1.474;2024-02-26T01:40:43;99704.91;;;2.67;100.00
55755;BME280;41674;52.290;-1.474;2024-02-26T01:43:12;99713.34;;;1.63;100.00
55755;BME280;41674;52.290;-1.474;2024-02-26T01:45:42;99718.90;;;1.57;100.00
55755;BME280;41674;52.290;-1.474;2024-02-26T01:48:12;99721.19;;;1.38;100.00
55755;BME280;41674;52.290;-1.474;2024-02-26T01:50:42;99723.88;;;1.71;100.00
55755;BME280;41674;52.290;-1.474;2024-02-26T01:53:12;99729.64;;;1.63;100.00
55755;BME280;41674;52.290;-1.474;2024-02-26T01:55:41;99737.45;;;1.13;100.00
55755;BME280;41674;52.290;-1.474;2024-02-26T01:58:11;99742.20;;;1.35;100.00
55755;BME280;41674;52.290;-1.474;2024-02-26T02:00:40;99740.07;;;1.18;100.00
55755;BME280;41674;52.290;-1.474;2024-02-26T02:03:10;99750.83;;;1.22;100.00
55755;BME280;41674;52.290;-1.474;2024-02-26T02:05:40;99751.70;;;1.12;100.00
55755;BME280;41674;52.290;-1.474;2024-02-26T02:08:13;99756.72;;;1.04;100.00
55755;BME280;41674;52.290;-1.474;2024-02-26T02:10:39;99759.88;;;1.53;100.00
55755;BME280;41674;52.290;-1.474;2024-02-26T02:13:09;99763.02;;;1.48;100.00
55755;BME280;41674;52.290;-1.474;2024-02-26T02:15:38;99766.37;;;1.27;100.00
55755;BME280;41674;52.290;-1.474;2024-02-26T02:18:08;99770.18;;;1.44;100.00
55755;BME280;41674;52.290;-1.474;2024-02-26T02:20:38;99782.58;;;1.50;100.00
55755;BME280;41674;52.290;-1.474;2024-02-26T02:23:07;99779.38;;;1.22;100.00
55755;BME280;41674;52.290;-1.474;2024-02-26T02:25:37;99782.50;;;1.58;100.00
55755;BME280;41674;52.290;-1.474;2024-02-26T02:28:07;99792.02;;;1.12;100.00
55755;BME280;41674;52.290;-1.474;2024-02-26T02:30:38;99797.07;;;1.66;100.00
55755;BME280;41674;52.290;-1.474;2024-02-26T02:33:06;99795.14;;;1.69;100.00
55755;BME280;41674;52.290;-1.474;2024-02-26T02:35:37;99799.14;;;1.39;100.00
55755;BME280;41674;52.290;-1.474;2024-02-26T02:38:05;99811.89;;;0.82;100.00
55755;BME280;41674;52.290;-1.474;2024-02-26T02:40:35;99813.42;;;0.79;100.00
55755;BME280;41674;52.290;-1.474;2024-02-26T02:43:05;99819.48;;;1.14;100.00
55755;BME280;41674;52.290;-1.474;2024-02-26T02:45:35;99824.42;;;0.80;100.00
55755;BME280;41674;52.290;-1.474;2024-02-26T02:48:05;99829.09;;;1.56;100.00
55755;BME280;41674;52.290;-1.474;2024-02-26T02:50:34;99835.55;;;1.15;100.00
55755;BME280;41674;52.290;-1.474;2024-02-26T02:53:06;99842.78;;;1.26;100.00
55755;BME280;41674;52.290;-1.474;2024-02-26T02:55:34;99843.16;;;1.85;100.00
55755;BME280;41674;52.290;-1.474;2024-02-26T02:58:04;99850.92;;;1.25;100.00
55755;BME280;41674;52.290;-1.474;2024-02-26T03:00:33;99856.32;;;1.84;100.00
55755;BME280;41674;52.290;-1.474;2024-02-26T03:03:03;99857.05;;;1.62;100.00
55755;BME280;41674;52.290;-1.474;2024-02-26T03:05:34;99865.93;;;1.44;100.00
55755;BME280;41674;52.290;-1.474;2024-02-26T03:08:02;99865.56;;;1.70;100.00
55755;BME280;41674;52.290;-1.474;2024-02-26T03:10:31;99883.69;;;1.68;100.00
55755;BME280;41674;52.290;-1.474;2024-02-26T03:13:01;99890.40;;;1.35;100.00
55755;BME280;41674;52.290;-1.474;2024-02-26T03:15:30;99888.06;;;1.88;100.00
55755;BME280;41674;52.290;-1.474;2024-02-26T03:18:03;99896.96;;;1.16;100.00
55755;BME280;41674;52.290;-1.474;2024-02-26T03:20:29;99896.83;;;1.36;100.00
55755;BME280;41674;52.290;-1.474;2024-02-26T03:22:59;99901.06;;;0.95;100.00
55755;BME280;41674;52.290;-1.474;2024-02-26T03:25:29;99906.24;;;1.02;100.00
55755;BME280;41674;52.290;-1.474;2024-02-26T03:27:58;99908.11;;;1.51;100.00
55755;BME280;41674;52.290;-1.474;2024-02-26T03:30:28;99910.57;;;1.44;100.00
55755;BME280;41674;52.290;-1.474;2024-02-26T03:32:58;99917.78;;;1.15;100.00
55755;BME280;41674;52.290;-1.474;2024-02-26T03:35:28;99918.46;;;1.20;100.00
55755;BME280;41674;52.290;-1.474;2024-02-26T03:37:57;99920.86;;;1.48;100.00
55755;BME280;41674;52.290;-1.474;2024-02-26T03:40:26;99927.23;;;1.43;100.00
55755;BME280;41674;52.290;-1.474;2024-02-26T03:42:56;99929.99;;;1.51;100.00
55755;BME280;41674;52.290;-1.474;2024-02-26T03:45:25;99936.34;;;1.76;100.00
55755;BME280;41674;52.290;-1.474;2024-02-26T03:47:54;99944.04;;;1.76;100.00
55755;BME280;41674;52.290;-1.474;2024-02-26T03:50:25;99948.64;;;1.68;100.00
55755;BME280;41674;52.290;-1.474;2024-02-26T03:52:54;99954.26;;;1.29;100.00
55755;BME280;41674;52.290;-1.474;2024-02-26T03:55:23;99956.57;;;1.63;100.00
55755;BME280;41674;52.290;-1.474;2024-02-26T03:57:53;99966.89;;;1.21;100.00
55755;BME280;41674;52.290;-1.474;2024-02-26T04:00:23;99963.04;;;1.66;100.00
55755;BME280;41674;52.290;-1.474;2024-02-26T04:02:52;99969.79;;;1.74;100.00
55755;BME280;41674;52.290;-1.474;2024-02-26T04:05:22;99967.81;;;1.71;100.00
55755;BME280;41674;52.290;-1.474;2024-02-26T04:07:51;99975.69;;;2.21;100.00
55755;BME280;41674;52.290;-1.474;2024-02-26T04:10:21;99983.70;;;1.66;100.00
55755;BME280;41674;52.290;-1.474;2024-02-26T04:12:51;99982.62;;;1.51;100.00
55755;BME280;41674;52.290;-1.474;2024-02-26T04:15:22;99997.91;;;1.13;100.00
55755;BME280;41674;52.290;-1.474;2024-02-26T04:17:50;99991.58;;;2.12;100.00
55755;BME280;41674;52.290;-1.474;2024-02-26T04:20:21;100000.96;;;1.63;100.00
55755;BME280;41674;52.290;-1.474;2024-02-26T04:22:49;100005.63;;;1.05;100.00
55755;BME280;41674;52.290;-1.474;2024-02-26T04:25:19;100010.43;;;1.73;100.00
55755;BME280;41674;52.290;-1.474;2024-02-26T04:27:48;100020.32;;;1.85;100.00
55755;BME280;41674;52.290;-1.474;2024-02-26T04:30:18;100022.65;;;1.28;100.00
55755;BME280;41674;52.290;-1.474;2024-02-26T04:32:48;100035.53;;;1.85;100.00
55755;BME280;41674;52.290;-1.474;2024-02-26T04:35:17;100040.09;;;1.48;100.00
55755;BME280;41674;52.290;-1.474;2024-02-26T04:37:49;100051.07;;;1.25;100.00
55755;BME280;41674;52.290;-1.474;2024-02-26T04:40:18;100052.04;;;1.20;100.00
55755;BME280;41674;52.290;-1.474;2024-02-26T04:42:46;100053.74;;;1.38;100.00
55755;BME280;41674;52.290;-1.474;2024-02-26T04:45:16;100067.39;;;1.17;100.00
55755;BME280;41674;52.290;-1.474;2024-02-26T04:47:46;100067.62;;;1.38;100.00
55755;BME280;41674;52.290;-1.474;2024-02-26T04:50:16;100069.91;;;1.38;100.00
55755;BME280;41674;52.290;-1.474;2024-02-26T04:52:45;100077.09;;;1.42;100.00
55755;BME280;41674;52.290;-1.474;2024-02-26T04:55:15;100082.17;;;1.16;100.00
55755;BME280;41674;52.290;-1.474;2024-02-26T04:57:45;100088.16;;;1.41;100.00
55755;BME280;41674;52.290;-1.474;2024-02-26T05:00:15;100097.25;;;1.50;100.00
55755;BME280;41674;52.290;-1.474;2024-02-26T05:02:44;100104.91;;;2.15;100.00
55755;BME280;41674;52.290;-1.474;2024-02-26T05:05:15;100104.40;;;1.38;100.00
55755;BME280;41674;52.290;-1.474;2024-02-26T05:07:43;100112.31;;;1.91;100.00
55755;BME280;41674;52.290;-1.474;2024-02-26T05:10:14;100118.24;;;2.27;100.00
55755;BME280;41674;52.290;-1.474;2024-02-26T05:12:42;100126.37;;;1.68;100.00
55755;BME280;41674;52.290;-1.474;2024-02-26T05:15:12;100125.18;;;1.70;100.00
55755;BME280;41674;52.290;-1.474;2024-02-26T05:17:42;100129.97;;;1.53;100.00
55755;BME280;41674;52.290;-1.474;2024-02-26T05:20:12;100139.81;;;2.04;100.00
55755;BME280;41674;52.290;-1.474;2024-02-26T05:22:41;100147.71;;;1.18;100.00
55755;BME280;41674;52.290;-1.474;2024-02-26T05:25:11;100154.25;;;1.86;100.00
55755;BME280;41674;52.290;-1.474;2024-02-26T05:27:41;100163.29;;;2.21;100.00
55755;BME280;41674;52.290;-1.474;2024-02-26T05:30:11;100174.00;;;1.83;100.00
55755;BME280;41674;52.290;-1.474;2024-02-26T05:32:41;100179.33;;;1.40;100.00
55755;BME280;41674;52.290;-1.474;2024-02-26T05:35:10;100189.51;;;1.68;100.00
55755;BME280;41674;52.290;-1.474;2024-02-26T05:37:40;100185.77;;;1.63;100.00
55755;BME280;41674;52.290;-1.474;2024-02-26T05:40:10;100199.34;;;1.76;100.00
55755;BME280;41674;52.290;-1.474;2024-02-26T05:42:39;100199.32;;;1.67;100.00
55755;BME280;41674;52.290;-1.474;2024-02-26T05:45:10;100199.91;;;1.82;100.00
55755;BME280;41674;52.290;-1.474;2024-02-26T05:47:40;100203.95;;;2.07;100.00
55755;BME280;41674;52.290;-1.474;2024-02-26T05:50:08;100204.60;;;1.35;100.00
55755;BME280;41674;52.290;-1.474;2024-02-26T05:52:38;100218.18;;;1.78;100.00
55755;BME280;41674;52.290;-1.474;2024-02-26T05:55:08;100228.23;;;1.37;100.00
55755;BME280;41674;52.290;-1.474;2024-02-26T05:57:37;100233.47;;;1.74;100.00
55755;BME280;41674;52.290;-1.474;2024-02-26T06:00:08;100237.08;;;1.46;100.00
55755;BME280;41674;52.290;-1.474;2024-02-26T06:02:36;100239.48;;;1.67;100.00
55755;BME280;41674;52.290;-1.474;2024-02-26T06:05:06;100246.14;;;1.68;100.00
55755;BME280;41674;52.290;-1.474;2024-02-26T06:07:37;100253.61;;;1.88;100.00
55755;BME280;41674;52.290;-1.474;2024-02-26T06:10:06;100261.70;;;1.60;100.00
55755;BME280;41674;52.290;-1.474;2024-02-26T06:12:35;100260.45;;;1.57;100.00
55755;BME280;41674;52.290;-1.474;2024-02-26T06:15:05;100264.29;;;2.02;100.00
55755;BME280;41674;52.290;-1.474;2024-02-26T06:17:34;100271.79;;;1.61;100.00
55755;BME280;41674;52.290;-1.474;2024-02-26T06:20:07;100278.55;;;1.83;100.00
55755;BME280;41674;52.290;-1.474;2024-02-26T06:22:34;100285.98;;;0.96;100.00
55755;BME280;41674;52.290;-1.474;2024-02-26T06:25:04;100280.63;;;0.92;100.00
55755;BME280;41674;52.290;-1.474;2024-02-26T06:27:34;100294.93;;;0.88;100.00
55755;BME280;41674;52.290;-1.474;2024-02-26T06:30:04;100299.29;;;1.27;100.00
55755;BME280;41674;52.290;-1.474;2024-02-26T06:32:33;100300.73;;;1.06;100.00
55755;BME280;41674;52.290;-1.474;2024-02-26T06:35:07;100305.20;;;0.93;100.00
55755;BME280;41674;52.290;-1.474;2024-02-26T06:37:32;100313.68;;;1.36;100.00
55755;BME280;41674;52.290;-1.474;2024-02-26T06:40:02;100321.87;;;1.22;100.00
55755;BME280;41674;52.290;-1.474;2024-02-26T06:42:31;100336.73;;;0.99;100.00
55755;BME280;41674;52.290;-1.474;2024-02-26T06:45:01;100335.51;;;0.65;100.00
55755;BME280;41674;52.290;-1.474;2024-02-26T06:47:30;100335.98;;;1.38;100.00
55755;BME280;41674;52.290;-1.474;2024-02-26T06:50:00;100340.24;;;1.47;100.00
55755;BME280;41674;52.290;-1.474;2024-02-26T06:52:31;100343.14;;;1.18;100.00
55755;BME280;41674;52.290;-1.474;2024-02-26T06:54:59;100358.57;;;1.24;100.00
55755;BME280;41674;52.290;-1.474;2024-02-26T06:57:29;100360.78;;;1.71;100.00
55755;BME280;41674;52.290;-1.474;2024-02-26T06:59:59;100366.68;;;1.30;100.00
55755;BME280;41674;52.290;-1.474;2024-02-26T07:02:30;100372.33;;;0.70;100.00
55755;BME280;41674;52.290;-1.474;2024-02-26T07:05:00;100381.80;;;0.11;100.00
55755;BME280;41674;52.290;-1.474;2024-02-26T07:07:28;100385.36;;;0.85;100.00
55755;BME280;41674;52.290;-1.474;2024-02-26T07:09:58;100391.89;;;0.89;100.00
55755;BME280;41674;52.290;-1.474;2024-02-26T07:12:27;100402.63;;;0.61;100.00
55755;BME280;41674;52.290;-1.474;2024-02-26T07:14:57;100401.85;;;0.96;100.00
55755;BME280;41674;52.290;-1.474;2024-02-26T07:17:27;100402.68;;;1.30;100.00
55755;BME280;41674;52.290;-1.474;2024-02-26T07:19:57;100408.06;;;0.95;100.00
55755;BME280;41674;52.290;-1.474;2024-02-26T07:22:26;100407.61;;;0.82;100.00
55755;BME280;41674;52.290;-1.474;2024-02-26T07:24:56;100410.64;;;0.56;100.00
55755;BME280;41674;52.290;-1.474;2024-02-26T07:27:27;100411.05;;;1.23;100.00
55755;BME280;41674;52.290;-1.474;2024-02-26T07:29:57;100415.76;;;0.95;100.00
55755;BME280;41674;52.290;-1.474;2024-02-26T07:32:25;100421.32;;;0.90;100.00
55755;BME280;41674;52.290;-1.474;2024-02-26T07:34:55;100425.85;;;0.76;100.00
55755;BME280;41674;52.290;-1.474;2024-02-26T07:37:24;100429.00;;;1.00;100.00
55755;BME280;41674;52.290;-1.474;2024-02-26T07:39:54;100428.61;;;1.05;100.00
55755;BME280;41674;52.290;-1.474;2024-02-26T07:42:24;100435.63;;;1.01;100.00
55755;BME280;41674;52.290;-1.474;2024-02-26T07:44:53;100447.59;;;0.91;100.00
55755;BME280;41674;52.290;-1.474;2024-02-26T07:47:23;100443.09;;;1.15;100.00
55755;BME280;41674;52.290;-1.474;2024-02-26T07:49:53;100453.50;;;0.77;100.00
55755;BME280;41674;52.290;-1.474;2024-02-26T07:52:23;100458.42;;;0.88;100.00
55755;BME280;41674;52.290;-1.474;2024-02-26T07:54:52;100461.62;;;0.81;100.00
55755;BME280;41674;52.290;-1.474;2024-02-26T07:57:22;100458.43;;;1.34;100.00
55755;BME280;41674;52.290;-1.474;2024-02-26T07:59:52;100463.78;;;1.07;100.00
55755;BME280;41674;52.290;-1.474;2024-02-26T08:02:21;100468.83;;;1.48;100.00
55755;BME280;41674;52.290;-1.474;2024-02-26T08:04:53;100481.05;;;0.87;100.00
55755;BME280;41674;52.290;-1.474;2024-02-26T08:07:21;100476.00;;;1.01;100.00
55755;BME280;41674;52.290;-1.474;2024-02-26T08:09:50;100479.63;;;1.05;100.00
55755;BME280;41674;52.290;-1.474;2024-02-26T08:12:21;100478.66;;;1.75;100.00
55755;BME280;41674;52.290;-1.474;2024-02-26T08:14:50;100485.66;;;1.92;100.00
55755;BME280;41674;52.290;-1.474;2024-02-26T08:17:19;100487.83;;;0.94;100.00
55755;BME280;41674;52.290;-1.474;2024-02-26T08:19:49;100485.06;;;0.93;100.00
55755;BME280;41674;52.290;-1.474;2024-02-26T08:22:19;100486.10;;;1.50;100.00
55755;BME280;41674;52.290;-1.474;2024-02-26T08:24:48;100489.15;;;2.00;100.00
55755;BME280;41674;52.290;-1.474;2024-02-26T08:27:20;100489.34;;;1.51;100.00
55755;BME280;41674;52.290;-1.474;2024-02-26T08:29:50;100499.09;;;1.97;100.00
55755;BME280;41674;52.290;-1.474;2024-02-26T08:32:17;100508.60;;;1.33;100.00
55755;BME280;41674;52.290;-1.474;2024-02-26T08:34:47;100512.60;;;1.42;100.00
55755;BME280;41674;52.290;-1.474;2024-02-26T08:37:17;100522.46;;;1.64;100.00
55755;BME280;41674;52.290;-1.474;2024-02-26T08:39:47;100526.21;;;0.89;100.00
55755;BME280;41674;52.290;-1.474;2024-02-26T08:42:16;100524.97;;;1.12;100.00
55755;BME280;41674;52.290;-1.474;2024-02-26T08:44:47;100532.66;;;1.86;100.00
55755;BME280;41674;52.290;-1.474;2024-02-26T08:47:16;100529.83;;;1.49;100.00
55755;BME280;41674;52.290;-1.474;2024-02-26T08:49:46;100540.78;;;1.28;100.00
55755;BME280;41674;52.290;-1.474;2024-02-26T08:52:17;100531.28;;;1.51;100.00
55755;BME280;41674;52.290;-1.474;2024-02-26T08:54:45;100532.19;;;1.61;100.00
55755;BME280;41674;52.290;-1.474;2024-02-26T08:57:14;100536.05;;;2.02;100.00
55755;BME280;41674;52.290;-1.474;2024-02-26T08:59:44;100541.97;;;2.17;100.00
55755;BME280;41674;52.290;-1.474;2024-02-26T09:02:14;100547.93;;;1.69;100.00
55755;BME280;41674;52.290;-1.474;2024-02-26T09:04:45;100550.31;;;2.30;100.00
55755;BME280;41674;52.290;-1.474;2024-02-26T09:07:13;100562.17;;;2.40;100.00
55755;BME280;41674;52.290;-1.474;2024-02-26T09:09:43;100558.51;;;2.66;100.00
55755;BME280;41674;52.290;-1.474;2024-02-26T09:12:12;100564.36;;;2.98;100.00
55755;BME280;41674;52.290;-1.474;2024-02-26T09:14:42;100565.85;;;3.19;100.00
55755;BME280;41674;52.290;-1.474;2024-02-26T09:17:12;100570.99;;;3.20;100.00
55755;BME280;41674;52.290;-1.474;2024-02-26T09:19:41;100579.49;;;3.13;100.00
55755;BME280;41674;52.290;-1.474;2024-02-26T09:22:11;100581.51;;;3.57;99.62
55755;BME280;41674;52.290;-1.474;2024-02-26T09:24:41;100579.64;;;3.27;99.61
55755;BME280;41674;52.290;-1.474;2024-02-26T09:27:10;100588.51;;;2.40;100.00
55755;BME280;41674;52.290;-1.474;2024-02-26T09:29:42;100592.50;;;3.68;98.99
55755;BME280;41674;52.290;-1.474;2024-02-26T09:32:10;100587.93;;;3.29;99.66
55755;BME280;41674;52.290;-1.474;2024-02-26T09:34:40;100595.10;;;3.45;99.78
55755;BME280;41674;52.290;-1.474;2024-02-26T09:37:11;100601.47;;;4.03;94.14
55755;BME280;41674;52.290;-1.474;2024-02-26T09:39:39;100595.76;;;4.30;95.12
55755;BME280;41674;52.290;-1.474;2024-02-26T09:42:09;100600.95;;;4.04;93.68
55755;BME280;41674;52.290;-1.474;2024-02-26T09:44:40;100612.72;;;4.27;91.84
55755;BME280;41674;52.290;-1.474;2024-02-26T09:47:10;100620.78;;;4.20;90.82
55755;BME280;41674;52.290;-1.474;2024-02-26T09:49:38;100623.64;;;3.70;93.28
55755;BME280;41674;52.290;-1.474;2024-02-26T09:52:09;100632.96;;;3.02;96.24
55755;BME280;41674;52.290;-1.474;2024-02-26T09:54:37;100631.49;;;2.80;98.59
55755;BME280;41674;52.290;-1.474;2024-02-26T09:57:09;100639.57;;;3.40;97.46
55755;BME280;41674;52.290;-1.474;2024-02-26T09:59:39;100644.24;;;2.79;97.54
55755;BME280;41674;52.290;-1.474;2024-02-26T10:02:08;100645.69;;;3.33;95.89
55755;BME280;41674;52.290;-1.474;2024-02-26T10:04:36;100651.33;;;3.49;94.93
55755;BME280;41674;52.290;-1.474;2024-02-26T10:07:06;100655.92;;;3.41;94.60
55755;BME280;41674;52.290;-1.474;2024-02-26T10:09:34;100661.78;;;3.94;93.37
55755;BME280;41674;52.290;-1.474;2024-02-26T10:12:04;100674.37;;;3.40;93.34
55755;BME280;41674;52.290;-1.474;2024-02-26T10:14:33;100668.39;;;3.37;93.86
55755;BME280;41674;52.290;-1.474;2024-02-26T10:17:07;100667.45;;;3.57;94.19
55755;BME280;41674;52.290;-1.474;2024-02-26T10:19:33;100672.84;;;3.26;92.58
55755;BME280;41674;52.290;-1.474;2024-02-26T10:22:03;100675.83;;;3.83;91.03
55755;BME280;41674;52.290;-1.474;2024-02-26T10:24:32;100688.51;;;3.55;91.43
55755;BME280;41674;52.290;-1.474;2024-02-26T10:27:02;100697.21;;;3.25;91.66
55755;BME280;41674;52.290;-1.474;2024-02-26T10:29:31;100694.16;;;3.08;92.61
55755;BME280;41674;52.290;-1.474;2024-02-26T10:32:02;100699.01;;;3.25;91.59
55755;BME280;41674;52.290;-1.474;2024-02-26T10:34:31;100712.09;;;3.03;92.09
55755;BME280;41674;52.290;-1.474;2024-02-26T10:37:03;100710.48;;;3.68;90.78
55755;BME280;41674;52.290;-1.474;2024-02-26T10:39:30;100712.28;;;3.31;90.42
55755;BME280;41674;52.290;-1.474;2024-02-26T10:42:00;100712.89;;;3.35;90.59
55755;BME280;41674;52.290;-1.474;2024-02-26T10:44:29;100719.74;;;4.08;90.18
55755;BME280;41674;52.290;-1.474;2024-02-26T10:46:59;100717.09;;;4.24;89.79
55755;BME280;41674;52.290;-1.474;2024-02-26T10:49:30;100718.49;;;4.15;90.12
55755;BME280;41674;52.290;-1.474;2024-02-26T10:51:58;100719.40;;;4.17;89.96
55755;BME280;41674;52.290;-1.474;2024-02-26T10:54:29;100732.71;;;4.59;88.49
55755;BME280;41674;52.290;-1.474;2024-02-26T10:56:59;100734.43;;;4.19;88.94
55755;BME280;41674;52.290;-1.474;2024-02-26T10:59:29;100746.67;;;4.16;88.57
55755;BME280;41674;52.290;-1.474;2024-02-26T11:01:57;100754.44;;;4.36;88.86
55755;BME280;41674;52.290;-1.474;2024-02-26T11:04:28;100752.58;;;4.06;87.07
55755;BME280;41674;52.290;-1.474;2024-02-26T11:06:57;100743.32;;;4.84;87.47
55755;BME280;41674;52.290;-1.474;2024-02-26T11:09:25;100752.79;;;4.49;87.06
55755;BME280;41674;52.290;-1.474;2024-02-26T11:11:57;100761.40;;;4.74;86.57
55755;BME280;41674;52.290;-1.474;2024-02-26T11:14:29;100759.09;;;4.70;85.11
55755;BME280;41674;52.290;-1.474;2024-02-26T11:16:56;100760.26;;;4.28;85.87
55755;BME280;41674;52.290;-1.474;2024-02-26T11:19:25;100766.75;;;4.76;84.48
55755;BME280;41674;52.290;-1.474;2024-02-26T11:21:54;100770.97;;;5.04;82.19
55755;BME280;41674;52.290;-1.474;2024-02-26T11:24:23;100780.99;;;4.59;83.86
55755;BME280;41674;52.290;-1.474;2024-02-26T11:26:55;100778.04;;;4.35;85.56
55755;BME280;41674;52.290;-1.474;2024-02-26T11:29:26;100785.41;;;4.06;86.72
55755;BME280;41674;52.290;-1.474;2024-02-26T11:31:53;100781.29;;;4.31;85.59
55755;BME280;41674;52.290;-1.474;2024-02-26T11:34:25;100789.58;;;4.12;87.13
55755;BME280;41674;52.290;-1.474;2024-02-26T11:36:52;100784.51;;;4.70;86.47
55755;BME280;41674;52.290;-1.474;2024-02-26T11:39:22;100787.24;;;4.25;86.06
55755;BME280;41674;52.290;-1.474;2024-02-26T11:41:52;100794.35;;;4.10;87.28
55755;BME280;41674;52.290;-1.474;2024-02-26T11:44:29;100798.39;;;4.83;85.23
55755;BME280;41674;52.290;-1.474;2024-02-26T11:46:50;100804.31;;;5.00;84.54
55755;BME280;41674;52.290;-1.474;2024-02-26T11:49:30;100805.12;;;4.74;85.20
55755;BME280;41674;52.290;-1.474;2024-02-26T11:51:51;100807.27;;;4.82;83.22
55755;BME280;41674;52.290;-1.474;2024-02-26T11:56:50;100817.82;;;4.35;83.80
55755;BME280;41674;52.290;-1.474;2024-02-26T12:01:48;100821.10;;;5.04;82.00
55755;BME280;41674;52.290;-1.474;2024-02-26T12:04:25;100807.73;;;5.22;77.71
55755;BME280;41674;52.290;-1.474;2024-02-26T12:06:52;100816.67;;;5.61;79.11
55755;BME280;41674;52.290;-1.474;2024-02-26T12:09:32;100825.33;;;5.38;77.47
55755;BME280;41674;52.290;-1.474;2024-02-26T12:11:47;100818.40;;;5.78;74.42
55755;BME280;41674;52.290;-1.474;2024-02-26T12:14:18;100823.38;;;6.39;75.92
55755;BME280;41674;52.290;-1.474;2024-02-26T12:16:46;100823.34;;;6.83;74.93
55755;BME280;41674;52.290;-1.474;2024-02-26T12:19:16;100829.72;;;7.43;69.46
55755;BME280;41674;52.290;-1.474;2024-02-26T12:21:51;100825.95;;;7.75;67.28
55755;BME280;41674;52.290;-1.474;2024-02-26T12:24:15;100834.01;;;7.34;70.46
55755;BME280;41674;52.290;-1.474;2024-02-26T12:26:44;100835.10;;;6.24;70.85
55755;BME280;41674;52.290;-1.474;2024-02-26T12:29:14;100847.34;;;5.69;73.61
55755;BME280;41674;52.290;-1.474;2024-02-26T12:31:45;100853.95;;;5.52;77.05
55755;BME280;41674;52.290;-1.474;2024-02-26T12:34:13;100842.34;;;6.30;75.80
55755;BME280;41674;52.290;-1.474;2024-02-26T12:36:43;100849.33;;;7.11;73.45
55755;BME280;41674;52.290;-1.474;2024-02-26T12:39:12;100850.02;;;6.78;73.37
55755;BME280;41674;52.290;-1.474;2024-02-26T12:41:42;100858.11;;;7.66;72.03
55755;BME280;41674;52.290;-1.474;2024-02-26T12:44:13;100862.77;;;7.49;69.93
55755;BME280;41674;52.290;-1.474;2024-02-26T12:46:41;100858.98;;;7.39;70.12
55755;BME280;41674;52.290;-1.474;2024-02-26T12:49:15;100862.31;;;6.95;68.29
55755;BME280;41674;52.290;-1.474;2024-02-26T12:51:41;100854.86;;;7.26;68.44
55755;BME280;41674;52.290;-1.474;2024-02-26T12:54:10;100846.37;;;8.17;66.84
55755;BME280;41674;52.290;-1.474;2024-02-26T12:56:40;100854.54;;;8.24;63.28
55755;BME280;41674;52.290;-1.474;2024-02-26T12:59:11;100857.28;;;8.39;62.87
55755;BME280;41674;52.290;-1.474;2024-02-26T13:01:39;100860.21;;;8.70;62.56